SWA1982 KSFO-KLAX
Flight info
| Callsign | SWA1982 |
|---|---|
| Flight time | 0h 57m |
| Altitude | 33000 |
| Route | WESLA5 SUSEY EBAYE BURGL IRNMN2 |
| Aircraft | B738/M-SDE2E3FGHIRWXY/LB1 |
Departure
| Time | 2026-05-07 22:44 |
|---|---|
| Airport | San Francisco International Airport (KSFO) |
Arrival
| Time | 2026-05-07 23:41 |
|---|---|
| Airport | Los Angeles International Airport (KLAX) |
| Time | Latitude | Longitude | Altitude | Speed | Heading |
|---|---|---|---|---|---|
| 2026-05-07 21:55 | 37.62107 | -122.38668 | 14 ft | 0 kts | 178° |
| 2026-05-07 22:30 | 37.62116 | -122.38669 | 14 ft | 3 kts | 178° |
| 2026-05-07 22:31 | 37.62137 | -122.38670 | 14 ft | 3 kts | 178° |
| 2026-05-07 22:31 | 37.62157 | -122.38671 | 15 ft | 3 kts | 158° |
| 2026-05-07 22:31 | 37.62167 | -122.38681 | 15 ft | 0 kts | 117° |
| 2026-05-07 22:35 | 37.62166 | -122.38680 | 15 ft | 0 kts | 117° |
| 2026-05-07 22:36 | 37.62132 | -122.38596 | 16 ft | 25 kts | 118° |
| 2026-05-07 22:36 | 37.62054 | -122.38412 | 19 ft | 22 kts | 116° |
| 2026-05-07 22:37 | 37.62002 | -122.38288 | 22 ft | 14 kts | 118° |
| 2026-05-07 22:37 | 37.61958 | -122.38184 | 20 ft | 13 kts | 118° |
| 2026-05-07 22:37 | 37.61916 | -122.38083 | 21 ft | 13 kts | 118° |
| 2026-05-07 22:37 | 37.61875 | -122.37986 | 21 ft | 12 kts | 118° |
| 2026-05-07 22:38 | 37.61836 | -122.37886 | 18 ft | 13 kts | 112° |
| 2026-05-07 22:38 | 37.61810 | -122.37801 | 16 ft | 0 kts | 111° |
| 2026-05-07 22:38 | 37.61806 | -122.37787 | 16 ft | 10 kts | 112° |
| 2026-05-07 22:38 | 37.61771 | -122.37678 | 18 ft | 17 kts | 111° |
| 2026-05-07 22:39 | 37.61728 | -122.37538 | 19 ft | 17 kts | 111° |
| 2026-05-07 22:39 | 37.61675 | -122.37402 | 21 ft | 20 kts | 118° |
| 2026-05-07 22:39 | 37.61601 | -122.37227 | 23 ft | 25 kts | 117° |
| 2026-05-07 22:39 | 37.61515 | -122.37022 | 22 ft | 26 kts | 118° |
| 2026-05-07 22:40 | 37.61424 | -122.36866 | 20 ft | 19 kts | 130° |
| 2026-05-07 22:40 | 37.61348 | -122.36735 | 19 ft | 18 kts | 120° |
| 2026-05-07 22:40 | 37.61290 | -122.36596 | 17 ft | 18 kts | 117° |
| 2026-05-07 22:40 | 37.61233 | -122.36459 | 18 ft | 17 kts | 118° |
| 2026-05-07 22:41 | 37.61176 | -122.36327 | 19 ft | 17 kts | 117° |
| 2026-05-07 22:41 | 37.61121 | -122.36195 | 20 ft | 17 kts | 118° |
| 2026-05-07 22:41 | 37.61121 | -122.36094 | 21 ft | 10 kts | 31° |
| 2026-05-07 22:41 | 37.61159 | -122.36070 | 18 ft | 0 kts | 27° |
| 2026-05-07 22:42 | 37.61162 | -122.36067 | 18 ft | 6 kts | 29° |
| 2026-05-07 22:42 | 37.61251 | -122.36039 | 18 ft | 9 kts | 326° |
| 2026-05-07 22:43 | 37.61262 | -122.36064 | 17 ft | 0 kts | 297° |
| 2026-05-07 22:43 | 37.61265 | -122.36071 | 17 ft | 10 kts | 297° |
| 2026-05-07 22:43 | 37.61421 | -122.36438 | 15 ft | 84 kts | 297° |
| 2026-05-07 22:44 | 37.61796 | -122.37326 | 36 ft | 142 kts | 298° |
| 2026-05-07 22:44 | 37.62252 | -122.38441 | 724 ft | 141 kts | 297° |
| 2026-05-07 22:44 | 37.62740 | -122.39591 | 1203 ft | 153 kts | 297° |
| 2026-05-07 22:44 | 37.63260 | -122.40792 | 1804 ft | 159 kts | 297° |
| 2026-05-07 22:45 | 37.63800 | -122.42029 | 2487 ft | 165 kts | 299° |
| 2026-05-07 22:45 | 37.64365 | -122.43317 | 3193 ft | 167 kts | 299° |
| 2026-05-07 22:45 | 37.64957 | -122.44661 | 3628 ft | 192 kts | 300° |
| 2026-05-07 22:45 | 37.65655 | -122.46242 | 3882 ft | 217 kts | 300° |
| 2026-05-07 22:46 | 37.66429 | -122.48000 | 4174 ft | 238 kts | 299° |
| 2026-05-07 22:46 | 37.66879 | -122.50089 | 4539 ft | 262 kts | 269° |
| 2026-05-07 22:46 | 37.66382 | -122.52344 | 5197 ft | 275 kts | 241° |
| 2026-05-07 22:46 | 37.65056 | -122.54084 | 6044 ft | 279 kts | 212° |
| 2026-05-07 22:47 | 37.63221 | -122.54848 | 6884 ft | 283 kts | 182° |
| 2026-05-07 22:47 | 37.61306 | -122.54457 | 7607 ft | 286 kts | 160° |
| 2026-05-07 22:47 | 37.59463 | -122.53466 | 8371 ft | 290 kts | 154° |
| 2026-05-07 22:47 | 37.57630 | -122.52353 | 9126 ft | 293 kts | 154° |
| 2026-05-07 22:48 | 37.55784 | -122.51254 | 9725 ft | 295 kts | 155° |
| 2026-05-07 22:48 | 37.53896 | -122.50177 | 10210 ft | 301 kts | 155° |
| 2026-05-07 22:48 | 37.51913 | -122.49073 | 10452 ft | 324 kts | 156° |
| 2026-05-07 22:48 | 37.49785 | -122.47883 | 10714 ft | 343 kts | 153° |
| 2026-05-07 22:49 | 37.47864 | -122.46090 | 11301 ft | 346 kts | 133° |
| 2026-05-07 22:49 | 37.46224 | -122.43873 | 12114 ft | 346 kts | 131° |
| 2026-05-07 22:49 | 37.44600 | -122.41631 | 12884 ft | 348 kts | 131° |
| 2026-05-07 22:49 | 37.42961 | -122.39361 | 13636 ft | 350 kts | 131° |
| 2026-05-07 22:50 | 37.41316 | -122.37092 | 14358 ft | 353 kts | 131° |
| 2026-05-07 22:50 | 37.39664 | -122.34823 | 14905 ft | 360 kts | 131° |
| 2026-05-07 22:50 | 37.37965 | -122.32501 | 15636 ft | 362 kts | 131° |
| 2026-05-07 22:50 | 37.36245 | -122.30155 | 16243 ft | 368 kts | 131° |
| 2026-05-07 22:51 | 37.34497 | -122.27778 | 16902 ft | 372 kts | 131° |
| 2026-05-07 22:51 | 37.32728 | -122.25379 | 17553 ft | 377 kts | 131° |
| 2026-05-07 22:51 | 37.30935 | -122.22948 | 18189 ft | 381 kts | 131° |
| 2026-05-07 22:51 | 37.29122 | -122.20494 | 18747 ft | 386 kts | 131° |
| 2026-05-07 22:52 | 37.27286 | -122.18013 | 19286 ft | 390 kts | 131° |
| 2026-05-07 22:52 | 37.25427 | -122.15499 | 19841 ft | 395 kts | 131° |
| 2026-05-07 22:52 | 37.23540 | -122.12950 | 20414 ft | 398 kts | 131° |
| 2026-05-07 22:52 | 37.21647 | -122.10397 | 20968 ft | 402 kts | 131° |
| 2026-05-07 22:53 | 37.19728 | -122.07811 | 21495 ft | 407 kts | 131° |
| 2026-05-07 22:53 | 37.17783 | -122.05193 | 22024 ft | 411 kts | 131° |
| 2026-05-07 22:53 | 37.15850 | -122.02592 | 22568 ft | 414 kts | 131° |
| 2026-05-07 22:53 | 37.13875 | -121.99937 | 23077 ft | 419 kts | 131° |
| 2026-05-07 22:54 | 37.11882 | -121.97259 | 23563 ft | 423 kts | 131° |
| 2026-05-07 22:54 | 37.09862 | -121.94548 | 24036 ft | 426 kts | 131° |
| 2026-05-07 22:54 | 37.07833 | -121.91827 | 24490 ft | 428 kts | 131° |
| 2026-05-07 22:54 | 37.05794 | -121.89094 | 24937 ft | 431 kts | 131° |
| 2026-05-07 22:55 | 37.03733 | -121.86335 | 25374 ft | 434 kts | 131° |
| 2026-05-07 22:55 | 37.01664 | -121.83566 | 25812 ft | 436 kts | 131° |
| 2026-05-07 22:55 | 36.99581 | -121.80782 | 26233 ft | 439 kts | 131° |
| 2026-05-07 22:55 | 36.97486 | -121.77985 | 26636 ft | 442 kts | 131° |
| 2026-05-07 22:56 | 36.95378 | -121.75170 | 27036 ft | 445 kts | 131° |
| 2026-05-07 22:56 | 36.93255 | -121.72340 | 27429 ft | 448 kts | 131° |
| 2026-05-07 22:56 | 36.91143 | -121.69527 | 27806 ft | 450 kts | 131° |
| 2026-05-07 22:56 | 36.88991 | -121.66663 | 28189 ft | 453 kts | 131° |
| 2026-05-07 22:57 | 36.86830 | -121.63788 | 28560 ft | 455 kts | 131° |
| 2026-05-07 22:57 | 36.84654 | -121.60898 | 28951 ft | 457 kts | 131° |
| 2026-05-07 22:57 | 36.82484 | -121.58018 | 29487 ft | 455 kts | 131° |
| 2026-05-07 22:57 | 36.80318 | -121.55147 | 30092 ft | 452 kts | 131° |
| 2026-05-07 22:58 | 36.78167 | -121.52297 | 30576 ft | 451 kts | 131° |
| 2026-05-07 22:58 | 36.76015 | -121.49448 | 30980 ft | 450 kts | 131° |
| 2026-05-07 22:58 | 36.73866 | -121.46605 | 31366 ft | 450 kts | 131° |
| 2026-05-07 22:58 | 36.71717 | -121.43765 | 31793 ft | 449 kts | 131° |
| 2026-05-07 22:59 | 36.69578 | -121.40940 | 32255 ft | 447 kts | 131° |
| 2026-05-07 22:59 | 36.67447 | -121.38130 | 32692 ft | 445 kts | 131° |
| 2026-05-07 22:59 | 36.65323 | -121.35330 | 33069 ft | 445 kts | 131° |
| 2026-05-07 23:00 | 36.61057 | -121.29710 | 33108 ft | 450 kts | 131° |
| 2026-05-07 23:00 | 36.56777 | -121.24087 | 33084 ft | 444 kts | 131° |
| 2026-05-07 23:01 | 36.52530 | -121.18515 | 33100 ft | 444 kts | 131° |
| 2026-05-07 23:01 | 36.48273 | -121.12936 | 33079 ft | 445 kts | 131° |
| 2026-05-07 23:02 | 36.44018 | -121.07370 | 33069 ft | 445 kts | 131° |
| 2026-05-07 23:02 | 36.39953 | -121.01821 | 33070 ft | 445 kts | 128° |
| 2026-05-07 23:03 | 36.35958 | -120.95994 | 33057 ft | 445 kts | 127° |
| 2026-05-07 23:03 | 36.31947 | -120.90149 | 33052 ft | 444 kts | 128° |
| 2026-05-07 23:04 | 36.27919 | -120.84349 | 33053 ft | 443 kts | 128° |
| 2026-05-07 23:04 | 36.23876 | -120.78563 | 33056 ft | 444 kts | 128° |
| 2026-05-07 23:05 | 36.19830 | -120.72787 | 33056 ft | 444 kts | 128° |
| 2026-05-07 23:05 | 36.15780 | -120.67012 | 33053 ft | 445 kts | 128° |
| 2026-05-07 23:06 | 36.11724 | -120.61236 | 33054 ft | 445 kts | 128° |
| 2026-05-07 23:06 | 36.07659 | -120.55459 | 33053 ft | 445 kts | 128° |
| 2026-05-07 23:07 | 36.03618 | -120.49725 | 33050 ft | 444 kts | 128° |
| 2026-05-07 23:07 | 35.99557 | -120.43973 | 33044 ft | 444 kts | 128° |
| 2026-05-07 23:08 | 35.95491 | -120.38222 | 33041 ft | 442 kts | 128° |
| 2026-05-07 23:08 | 35.91446 | -120.32509 | 33048 ft | 441 kts | 128° |
| 2026-05-07 23:09 | 35.87342 | -120.26884 | 33039 ft | 442 kts | 134° |
| 2026-05-07 23:09 | 35.82353 | -120.22488 | 33053 ft | 446 kts | 146° |
| 2026-05-07 23:10 | 35.77002 | -120.18587 | 33048 ft | 446 kts | 146° |
| 2026-05-07 23:10 | 35.71686 | -120.14635 | 33037 ft | 446 kts | 146° |
| 2026-05-07 23:11 | 35.66387 | -120.10644 | 33045 ft | 446 kts | 146° |
| 2026-05-07 23:11 | 35.61094 | -120.06647 | 33040 ft | 447 kts | 145° |
| 2026-05-07 23:12 | 35.55800 | -120.02650 | 33045 ft | 447 kts | 145° |
| 2026-05-07 23:12 | 35.50500 | -119.98654 | 33036 ft | 447 kts | 145° |
| 2026-05-07 23:13 | 35.45202 | -119.94667 | 33037 ft | 447 kts | 145° |
| 2026-05-07 23:13 | 35.40793 | -119.91354 | 33041 ft | 446 kts | 146° |
| 2026-05-07 23:14 | 35.35567 | -119.87433 | 33031 ft | 436 kts | 145° |
| 2026-05-07 23:14 | 35.29532 | -119.82910 | 32919 ft | 439 kts | 145° |
| 2026-05-07 23:14 | 35.26989 | -119.80855 | 32505 ft | 435 kts | 141° |
| 2026-05-07 23:15 | 35.25353 | -119.79375 | 32283 ft | 430 kts | 139° |
| 2026-05-07 23:15 | 35.22997 | -119.77136 | 31859 ft | 427 kts | 138° |
| 2026-05-07 23:15 | 35.20678 | -119.74891 | 31453 ft | 424 kts | 138° |
| 2026-05-07 23:15 | 35.18371 | -119.72670 | 31062 ft | 421 kts | 139° |
| 2026-05-07 23:16 | 35.16095 | -119.70503 | 30667 ft | 418 kts | 139° |
| 2026-05-07 23:16 | 35.13790 | -119.68331 | 30267 ft | 416 kts | 139° |
| 2026-05-07 23:16 | 35.11489 | -119.66178 | 29818 ft | 414 kts | 139° |
| 2026-05-07 23:16 | 35.09208 | -119.64052 | 29371 ft | 411 kts | 139° |
| 2026-05-07 23:17 | 35.06940 | -119.61943 | 28937 ft | 408 kts | 139° |
| 2026-05-07 23:17 | 35.04691 | -119.59853 | 28515 ft | 405 kts | 139° |
| 2026-05-07 23:17 | 35.02457 | -119.57778 | 28108 ft | 402 kts | 139° |
| 2026-05-07 23:17 | 35.00240 | -119.55718 | 27700 ft | 399 kts | 139° |
| 2026-05-07 23:18 | 34.98040 | -119.53676 | 27295 ft | 396 kts | 139° |
| 2026-05-07 23:18 | 34.95852 | -119.51644 | 26894 ft | 394 kts | 139° |
| 2026-05-07 23:18 | 34.93677 | -119.49628 | 26500 ft | 392 kts | 139° |
| 2026-05-07 23:18 | 34.91504 | -119.47616 | 26113 ft | 392 kts | 140° |
| 2026-05-07 23:19 | 34.89341 | -119.45648 | 25726 ft | 395 kts | 140° |
| 2026-05-07 23:19 | 34.87087 | -119.43629 | 25338 ft | 414 kts | 141° |
| 2026-05-07 23:19 | 34.84690 | -119.41490 | 24833 ft | 437 kts | 142° |
| 2026-05-07 23:19 | 34.82216 | -119.39289 | 24411 ft | 442 kts | 142° |
| 2026-05-07 23:20 | 34.79740 | -119.37082 | 23972 ft | 441 kts | 142° |
| 2026-05-07 23:20 | 34.77278 | -119.34886 | 23473 ft | 438 kts | 142° |
| 2026-05-07 23:20 | 34.74831 | -119.32703 | 22969 ft | 434 kts | 142° |
| 2026-05-07 23:20 | 34.72397 | -119.30559 | 22495 ft | 429 kts | 143° |
| 2026-05-07 23:21 | 34.69987 | -119.28458 | 22045 ft | 424 kts | 143° |
| 2026-05-07 23:21 | 34.67601 | -119.26380 | 21618 ft | 420 kts | 143° |
| 2026-05-07 23:21 | 34.65235 | -119.24317 | 21187 ft | 417 kts | 143° |
| 2026-05-07 23:21 | 34.62882 | -119.22278 | 20761 ft | 414 kts | 143° |
| 2026-05-07 23:22 | 34.60538 | -119.20258 | 20339 ft | 411 kts | 143° |
| 2026-05-07 23:22 | 34.58207 | -119.18252 | 19908 ft | 409 kts | 143° |
| 2026-05-07 23:22 | 34.55928 | -119.16288 | 19502 ft | 406 kts | 143° |
| 2026-05-07 23:22 | 34.53645 | -119.14282 | 19081 ft | 404 kts | 142° |
| 2026-05-07 23:23 | 34.51381 | -119.12268 | 18635 ft | 403 kts | 142° |
| 2026-05-07 23:23 | 34.49128 | -119.10262 | 18199 ft | 401 kts | 142° |
| 2026-05-07 23:23 | 34.46881 | -119.08270 | 17742 ft | 398 kts | 142° |
| 2026-05-07 23:23 | 34.44648 | -119.06297 | 17304 ft | 394 kts | 142° |
| 2026-05-07 23:24 | 34.42435 | -119.04357 | 16866 ft | 391 kts | 142° |
| 2026-05-07 23:24 | 34.40233 | -119.02451 | 16469 ft | 387 kts | 143° |
| 2026-05-07 23:24 | 34.38049 | -119.00566 | 16059 ft | 383 kts | 142° |
| 2026-05-07 23:24 | 34.35895 | -118.98706 | 15658 ft | 377 kts | 142° |
| 2026-05-07 23:25 | 34.33777 | -118.96870 | 15279 ft | 372 kts | 142° |
| 2026-05-07 23:25 | 34.31719 | -118.95016 | 14893 ft | 366 kts | 141° |
| 2026-05-07 23:25 | 34.29703 | -118.93171 | 14520 ft | 361 kts | 141° |
| 2026-05-07 23:25 | 34.27708 | -118.91349 | 14142 ft | 357 kts | 141° |
| 2026-05-07 23:26 | 34.25730 | -118.89552 | 13766 ft | 353 kts | 141° |
| 2026-05-07 23:26 | 34.23797 | -118.87786 | 13352 ft | 344 kts | 141° |
| 2026-05-07 23:26 | 34.21914 | -118.86053 | 12904 ft | 339 kts | 141° |
| 2026-05-07 23:26 | 34.20026 | -118.84314 | 12383 ft | 341 kts | 141° |
| 2026-05-07 23:27 | 34.16328 | -118.80911 | 11934 ft | 326 kts | 140° |
| 2026-05-07 23:27 | 34.14609 | -118.79136 | 11593 ft | 324 kts | 136° |
| 2026-05-07 23:27 | 34.12957 | -118.77309 | 11263 ft | 321 kts | 136° |
| 2026-05-07 23:28 | 34.11340 | -118.75508 | 10946 ft | 319 kts | 136° |
| 2026-05-07 23:28 | 34.09705 | -118.73700 | 10630 ft | 318 kts | 136° |
| 2026-05-07 23:28 | 34.08077 | -118.71919 | 10253 ft | 319 kts | 136° |
| 2026-05-07 23:28 | 34.06414 | -118.70109 | 9947 ft | 316 kts | 136° |
| 2026-05-07 23:29 | 34.04837 | -118.68399 | 9895 ft | 300 kts | 137° |
| 2026-05-07 23:29 | 34.03423 | -118.66617 | 9401 ft | 297 kts | 118° |
| 2026-05-07 23:29 | 34.02719 | -118.64330 | 9007 ft | 290 kts | 99° |
| 2026-05-07 23:29 | 34.02483 | -118.61944 | 8697 ft | 283 kts | 94° |
| 2026-05-07 23:30 | 34.02293 | -118.59603 | 8376 ft | 278 kts | 94° |
| 2026-05-07 23:30 | 34.02094 | -118.57306 | 8104 ft | 272 kts | 95° |
| 2026-05-07 23:30 | 34.01893 | -118.55088 | 7949 ft | 262 kts | 95° |
| 2026-05-07 23:30 | 34.01693 | -118.52904 | 7728 ft | 263 kts | 95° |
| 2026-05-07 23:31 | 34.01489 | -118.50715 | 7521 ft | 264 kts | 95° |
| 2026-05-07 23:31 | 34.01283 | -118.48524 | 7294 ft | 261 kts | 95° |
| 2026-05-07 23:31 | 34.01083 | -118.46399 | 7220 ft | 247 kts | 95° |
| 2026-05-07 23:31 | 34.01157 | -118.44367 | 6998 ft | 241 kts | 78° |
| 2026-05-07 23:32 | 34.01510 | -118.42404 | 6798 ft | 242 kts | 76° |
| 2026-05-07 23:32 | 34.01888 | -118.40414 | 6559 ft | 243 kts | 76° |
| 2026-05-07 23:32 | 34.02251 | -118.38419 | 6198 ft | 245 kts | 77° |
| 2026-05-07 23:32 | 34.02609 | -118.36399 | 5801 ft | 248 kts | 77° |
| 2026-05-07 23:33 | 34.02909 | -118.34360 | 5493 ft | 247 kts | 82° |
| 2026-05-07 23:33 | 34.03114 | -118.32313 | 5181 ft | 245 kts | 83° |
| 2026-05-07 23:33 | 34.03308 | -118.30287 | 4849 ft | 241 kts | 83° |
| 2026-05-07 23:33 | 34.03520 | -118.28279 | 4372 ft | 242 kts | 81° |
| 2026-05-07 23:34 | 34.03748 | -118.26284 | 3946 ft | 238 kts | 81° |
| 2026-05-07 23:34 | 34.03983 | -118.24323 | 3666 ft | 233 kts | 81° |
| 2026-05-07 23:34 | 34.04210 | -118.22386 | 3624 ft | 237 kts | 81° |
| 2026-05-07 23:34 | 34.04434 | -118.20391 | 3573 ft | 244 kts | 82° |
| 2026-05-07 23:35 | 34.04543 | -118.18361 | 3568 ft | 242 kts | 97° |
| 2026-05-07 23:35 | 34.03924 | -118.16560 | 3565 ft | 228 kts | 132° |
| 2026-05-07 23:35 | 34.02671 | -118.15514 | 3577 ft | 216 kts | 165° |
| 2026-05-07 23:35 | 34.01248 | -118.15080 | 3566 ft | 206 kts | 173° |
| 2026-05-07 23:36 | 33.99893 | -118.15253 | 3559 ft | 193 kts | 211° |
| 2026-05-07 23:36 | 33.98880 | -118.16268 | 3578 ft | 190 kts | 230° |
| 2026-05-07 23:36 | 33.97999 | -118.17432 | 3590 ft | 187 kts | 231° |
| 2026-05-07 23:36 | 33.97166 | -118.18587 | 3579 ft | 182 kts | 239° |
| 2026-05-07 23:37 | 33.96878 | -118.20036 | 3369 ft | 186 kts | 278° |
| 2026-05-07 23:37 | 33.96979 | -118.21607 | 3124 ft | 192 kts | 270° |
| 2026-05-07 23:37 | 33.96918 | -118.23204 | 2876 ft | 190 kts | 266° |
| 2026-05-07 23:37 | 33.96792 | -118.24771 | 2625 ft | 186 kts | 264° |
| 2026-05-07 23:38 | 33.96638 | -118.26307 | 2382 ft | 184 kts | 263° |
| 2026-05-07 23:38 | 33.96482 | -118.27821 | 2140 ft | 181 kts | 263° |
| 2026-05-07 23:38 | 33.96328 | -118.29306 | 1901 ft | 177 kts | 262° |
| 2026-05-07 23:38 | 33.96180 | -118.30744 | 1699 ft | 168 kts | 263° |
| 2026-05-07 23:39 | 33.96039 | -118.32107 | 1466 ft | 160 kts | 263° |
| 2026-05-07 23:39 | 33.95902 | -118.33444 | 1247 ft | 162 kts | 262° |
| 2026-05-07 23:39 | 33.95765 | -118.34781 | 1040 ft | 160 kts | 262° |
| 2026-05-07 23:39 | 33.95633 | -118.36066 | 850 ft | 149 kts | 262° |
| 2026-05-07 23:40 | 33.95509 | -118.37275 | 655 ft | 143 kts | 263° |
| 2026-05-07 23:40 | 33.95386 | -118.38482 | 455 ft | 146 kts | 262° |
| 2026-05-07 23:40 | 33.95262 | -118.39636 | 257 ft | 136 kts | 264° |
| 2026-05-07 23:40 | 33.95145 | -118.40761 | 125 ft | 128 kts | 268° |
| 2026-05-07 23:41 | 33.95063 | -118.41638 | 120 ft | 69 kts | 262° |
| 2026-05-07 23:41 | 33.95012 | -118.42112 | 123 ft | 54 kts | 262° |
| 2026-05-07 23:41 | 33.94943 | -118.42526 | 124 ft | 37 kts | 244° |
| 2026-05-07 23:41 | 33.94899 | -118.42608 | 123 ft | 0 kts | 234° |
| 2026-05-07 23:42 | 33.94896 | -118.42615 | 124 ft | 8 kts | 234° |
| 2026-05-07 23:42 | 33.94801 | -118.42733 | 122 ft | 28 kts | 212° |
| 2026-05-07 23:42 | 33.94662 | -118.42780 | 120 ft | 0 kts | 173° |
| 2026-05-07 23:43 | 33.94651 | -118.42774 | 123 ft | 7 kts | 152° |
| 2026-05-07 23:44 | 33.94643 | -118.42632 | 125 ft | 24 kts | 82° |
| 2026-05-07 23:44 | 33.94664 | -118.42438 | 124 ft | 23 kts | 83° |
| 2026-05-07 23:44 | 33.94683 | -118.42251 | 125 ft | 22 kts | 83° |
| 2026-05-07 23:44 | 33.94700 | -118.42069 | 125 ft | 22 kts | 83° |
| 2026-05-07 23:45 | 33.94716 | -118.41921 | 125 ft | 16 kts | 83° |
| 2026-05-07 23:45 | 33.94729 | -118.41793 | 123 ft | 15 kts | 83° |
| 2026-05-07 23:45 | 33.94742 | -118.41670 | 125 ft | 14 kts | 83° |
| 2026-05-07 23:45 | 33.94753 | -118.41562 | 125 ft | 12 kts | 83° |
| 2026-05-07 23:46 | 33.94763 | -118.41463 | 122 ft | 12 kts | 78° |
| 2026-05-07 23:46 | 33.94786 | -118.41366 | 125 ft | 13 kts | 78° |
| 2026-05-07 23:46 | 33.94801 | -118.41243 | 125 ft | 16 kts | 82° |
| 2026-05-07 23:46 | 33.94814 | -118.41106 | 125 ft | 16 kts | 85° |
| 2026-05-07 23:47 | 33.94827 | -118.40976 | 125 ft | 15 kts | 82° |
| 2026-05-07 23:47 | 33.94806 | -118.40888 | 121 ft | 9 kts | 155° |
| 2026-05-07 23:47 | 33.94759 | -118.40832 | 121 ft | 9 kts | 98° |
| 2026-05-07 23:47 | 33.94736 | -118.40787 | 120 ft | 8 kts | 173° |
| 2026-05-07 23:48 | 33.94702 | -118.40782 | 122 ft | 1 kts | 174° |
| 2026-05-07 23:48 | 33.94701 | -118.40782 | 122 ft | 0 kts | 174° |